Time;durP1;ratioP1;P1;durP2;ratioP2;P2;SDS_P1;SDS_P2;PMS_P1;PMS_P2;Temp;Humidity;BMP_temperature;BMP_pressure;BME280_temperature;BME280_humidity;BME280_pressure;Samples;Min_cycle;Max_cycle;Signal;HPM_P1;HPM_P2
2021/01/29 00:01:03;;;;;;;6.62;4.17;;;;;;;-2.08;94.18;97158.03;1779545;81;21541;-65
2021/01/29 00:03:31;;;;;;;8.35;4.53;;;;;;;-2.04;93.76;97159.83;1779273;81;21159;-65
2021/01/29 00:06:04;;;;;;;6.22;3.92;;;;;;;-2.05;93.74;97155.59;1779495;81;21288;-64
2021/01/29 00:08:35;;;;;;;8.45;4.85;;;;;;;-2.11;93.38;97140.25;1779331;80;21273;-65
2021/01/29 00:11:06;;;;;;;11.53;4.22;;;;;;;-2.18;93.36;97152.23;1779332;80;21292;-65
2021/01/29 00:13:34;;;;;;;9.48;4.72;;;;;;;-2.22;93.22;97150.41;1779514;80;21155;-64
2021/01/29 00:16:04;;;;;;;8.60;4.62;;;;;;;-2.29;93.28;97148.50;1779224;81;21296;-65
2021/01/29 00:18:32;;;;;;;10.32;4.28;;;;;;;-2.29;93.75;97144.70;1779529;81;21277;-64
2021/01/29 00:21:00;;;;;;;8.80;4.65;;;;;;;-2.24;93.77;97135.61;1779332;80;21280;-66
2021/01/29 00:23:27;;;;;;;7.87;4.17;;;;;;;-2.23;93.70;97139.87;1779329;81;21115;-66
2021/01/29 00:25:55;;;;;;;9.20;4.53;;;;;;;-2.24;93.63;97133.08;1779249;80;21138;-66
2021/01/29 00:28:24;;;;;;;6.60;4.12;;;;;;;-2.24;93.63;97128.91;1779243;81;21158;-64
2021/01/29 00:30:52;;;;;;;7.50;4.08;;;;;;;-2.28;93.28;97127.50;1779181;81;21135;-66
2021/01/29 00:33:24;;;;;;;7.40;4.10;;;;;;;-2.27;93.26;97125.00;1779209;81;21158;-65
2021/01/29 00:35:52;;;;;;;6.87;4.30;;;;;;;-2.27;92.91;97121.63;1779610;81;21338;-63
2021/01/29 00:38:21;;;;;;;8.10;4.00;;;;;;;-2.32;92.94;97119.36;1779210;81;21119;-65
2021/01/29 00:40:49;;;;;;;8.20;4.40;;;;;;;-2.35;93.32;97120.53;1779414;81;21158;-63
2021/01/29 00:43:17;;;;;;;9.55;4.53;;;;;;;-2.29;93.58;97124.50;1779347;80;21224;-65
2021/01/29 00:45:46;;;;;;;6.87;4.25;;;;;;;-2.16;93.89;97117.78;1779409;81;21301;-64
2021/01/29 00:48:14;;;;;;;6.58;3.75;;;;;;;-2.11;93.36;97114.98;1779412;80;21273;-65
2021/01/29 00:50:42;;;;;;;8.50;3.98;;;;;;;-2.08;93.28;97106.23;1781173;80;21189;-65
2021/01/29 00:53:10;;;;;;;6.72;3.50;;;;;;;-2.05;93.27;97107.58;1787476;80;21323;-63
2021/01/29 00:55:38;;;;;;;6.62;3.87;;;;;;;-2.07;92.69;97110.45;1787634;80;21158;-64
2021/01/29 00:58:08;;;;;;;7.03;3.30;;;;;;;-2.06;93.17;97112.57;1787087;80;21126;-65
2021/01/29 01:00:37;;;;;;;6.00;3.20;;;;;;;-2.03;92.85;97105.95;1745449;80;21154;-65
2021/01/29 01:03:06;;;;;;;5.10;2.95;;;;;;;-2.04;92.66;97109.28;1787596;80;21145;-65
2021/01/29 01:05:34;;;;;;;7.67;2.98;;;;;;;-2.12;91.92;97099.77;1787480;80;21196;-67
2021/01/29 01:08:04;;;;;;;6.17;3.10;;;;;;;-2.17;92.13;97105.94;1787727;80;21169;-63
2021/01/29 01:10:34;;;;;;;5.00;3.02;;;;;;;-2.19;91.99;97099.97;1745306;80;21304;-68
2021/01/29 01:13:20;;;;;;;5.22;2.75;;;;;;;-2.22;91.92;97099.47;1787748;80;21127;-66
2021/01/29 01:15:52;;;;;;;4.08;2.55;;;;;;;-2.24;91.55;97100.23;1782597;80;21299;-66
2021/01/29 01:18:20;;;;;;;6.78;3.30;;;;;;;-2.33;92.06;97094.51;1787771;80;21154;-67
2021/01/29 01:21:07;;;;;;;4.72;2.62;;;;;;;-2.30;92.31;97102.17;1787799;80;21142;-66
2021/01/29 01:26:17;;;;;;;5.08;2.22;;;;;;;-2.27;91.73;97095.09;1889927;76;22531;-64
2021/01/29 01:28:50;;;;;;;7.78;3.02;;;;;;;-2.30;91.49;97098.80;1750250;80;21126;-64
2021/01/29 01:31:19;;;;;;;5.50;2.70;;;;;;;-2.30;91.30;97097.53;1823562;79;21584;-64
2021/01/29 01:33:49;;;;;;;5.72;2.80;;;;;;;-2.26;91.17;97093.04;1790845;80;21723;-65
2021/01/29 01:36:19;;;;;;;4.87;2.85;;;;;;;-2.25;91.06;97092.22;1789889;80;21583;-64
2021/01/29 01:38:50;;;;;;;5.78;2.55;;;;;;;-2.25;90.43;97086.75;1790471;80;21154;-64
2021/01/29 01:41:19;;;;;;;5.08;2.80;;;;;;;-2.26;90.35;97085.05;1791511;80;21213;-63
2021/01/29 01:43:51;;;;;;;5.62;2.62;;;;;;;-2.21;90.56;97083.93;1791237;80;21122;-66
2021/01/29 01:46:24;;;;;;;4.83;2.60;;;;;;;-2.18;90.44;97082.75;1790296;80;21138;-64
2021/01/29 01:49:14;;;;;;;4.65;2.70;;;;;;;-2.14;90.37;97080.75;1791811;80;21316;-65
2021/01/29 01:52:05;;;;;;;5.42;2.77;;;;;;;-2.09;90.15;97084.27;1788422;80;21153;-64
2021/01/29 01:54:45;;;;;;;5.55;2.83;;;;;;;-2.05;89.58;97082.30;1791562;80;21611;-65
2021/01/29 01:57:17;;;;;;;5.90;3.27;;;;;;;-2.11;88.65;97074.55;1791475;80;21303;-67
2021/01/29 02:00:14;;;;;;;5.12;2.40;;;;;;;-2.13;88.63;97084.16;1774740;80;21587;-65
2021/01/29 02:02:49;;;;;;;5.53;2.37;;;;;;;-2.13;88.09;97083.75;1790935;80;21726;-64
2021/01/29 02:05:27;;;;;;;6.35;2.83;;;;;;;-2.19;87.36;97080.64;1791547;80;21165;-63
2021/01/29 02:08:06;;;;;;;4.60;2.25;;;;;;;-2.22;87.50;97082.20;1787220;80;21292;-63
2021/01/29 02:10:52;;;;;;;5.87;2.55;;;;;;;-2.24;86.67;97082.55;1791798;80;21217;-63
2021/01/29 02:13:23;;;;;;;5.37;2.60;;;;;;;-2.31;86.11;97078.15;1790952;80;21296;-64
2021/01/29 02:15:58;;;;;;;5.00;2.60;;;;;;;-2.36;85.50;97073.36;1789695;80;21599;-71
2021/01/29 02:18:53;;;;;;;5.97;2.02;;;;;;;-2.41;85.57;97066.90;1786880;80;21203;-67
2021/01/29 02:21:42;;;;;;;3.77;2.12;;;;;;;-2.49;84.32;97075.91;1791066;80;21142;-68
2021/01/29 02:24:55;;;;;;;5.47;2.42;;;;;;;-2.55;84.35;97057.61;1716420;80;21393;-71
2021/01/29 02:27:56;;;;;;;6.00;2.65;;;;;;;-2.65;83.44;97068.23;1845836;77;21601;-69
2021/01/29 02:30:56;;;;;;;5.17;2.60;;;;;;;-2.80;83.50;97061.44;1772383;80;21162;-64
2021/01/29 02:34:02;;;;;;;5.00;2.50;;;;;;;-2.93;83.46;97061.03;1844793;77;21217;-64
2021/01/29 02:37:13;;;;;;;4.78;2.40;;;;;;;-2.95;83.98;97063.94;1773271;80;21710;-62
2021/01/29 02:40:04;;;;;;;5.80;2.65;;;;;;;-2.96;84.00;97058.41;1756161;77;21195;-64
2021/01/29 02:43:06;;;;;;;4.72;2.45;;;;;;;-3.03;83.46;97063.20;1773947;81;21277;-66
2021/01/29 02:46:10;;;;;;;5.97;2.80;;;;;;;-3.09;83.88;97061.34;1844229;77;21539;-65
2021/01/29 02:49:09;;;;;;;7.87;2.58;;;;;;;-3.06;83.94;97056.39;1844687;77;21644;-65
2021/01/29 02:51:54;;;;;;;7.03;3.22;;;;;;;-3.03;83.88;97055.64;1845916;78;21107;-69
2021/01/29 02:54:41;;;;;;;10.80;3.15;;;;;;;-3.02;83.53;97051.92;1779425;77;21615;-63
2021/01/29 02:57:34;;;;;;;7.12;2.80;;;;;;;-3.04;83.50;97053.94;1842527;77;21162;-65
2021/01/29 03:00:15;;;;;;;6.70;3.00;;;;;;;-3.12;83.19;97051.16;1772310;81;21715;-65
2021/01/29 03:02:59;;;;;;;8.20;2.92;;;;;;;-3.23;83.06;97052.45;1844915;77;21264;-65
2021/01/29 03:05:52;;;;;;;5.85;2.83;;;;;;;-3.32;83.47;97040.40;1845679;77;21277;-64
2021/01/29 03:08:44;;;;;;;5.50;2.87;;;;;;;-3.36;83.60;97035.67;1854688;76;27940;-65
2021/01/29 03:11:54;;;;;;;5.28;2.80;;;;;;;-3.36;83.71;97034.78;1827672;77;21130;-69
2021/01/29 03:14:49;;;;;;;6.75;3.90;;;;;;;-3.37;83.65;97028.89;1827561;77;21142;-68
2021/01/29 03:18:00;;;;;;;6.83;3.33;;;;;;;-3.42;83.68;97020.72;1827721;77;21135;-66
2021/01/29 03:21:03;;;;;;;6.60;3.52;;;;;;;-3.45;83.75;97030.70;1827844;77;21506;-66
2021/01/29 03:24:10;;;;;;;5.60;3.40;;;;;;;-3.48;83.89;97031.46;1827722;77;21176;-63
2021/01/29 03:27:01;;;;;;;5.92;3.55;;;;;;;-3.51;84.00;97025.91;1827614;78;21129;-65
2021/01/29 03:29:56;;;;;;;7.75;3.55;;;;;;;-3.47;84.16;97026.86;1827527;78;21099;-65
2021/01/29 03:32:45;;;;;;;6.90;3.98;;;;;;;-3.45;83.89;97025.25;1827799;77;21231;-66
2021/01/29 03:35:40;;;;;;;10.03;4.92;;;;;;;-3.49;83.79;97027.20;1827766;78;21206;-66
2021/01/29 03:38:39;;;;;;;11.73;6.20;;;;;;;-3.55;83.83;97016.92;1782588;78;21131;-64
2021/01/29 03:41:34;;;;;;;17.35;7.22;;;;;;;-3.64;83.67;97021.63;1827874;78;21138;-64
2021/01/29 03:44:28;;;;;;;15.10;7.28;;;;;;;-3.76;83.81;97027.98;1827633;77;21548;-63
2021/01/29 03:47:47;;;;;;;17.55;8.73;;;;;;;-3.84;83.89;97027.23;1827513;78;21126;-64
2021/01/29 03:51:07;;;;;;;15.78;7.95;;;;;;;-3.94;83.99;97017.25;1807906;78;21380;-64
2021/01/29 03:54:21;;;;;;;15.58;6.90;;;;;;;-4.00;84.18;97019.53;1812736;78;21098;-65
2021/01/29 03:57:33;;;;;;;13.85;6.85;;;;;;;-4.06;84.22;97014.28;1827574;78;21553;-64
2021/01/29 04:00:54;;;;;;;13.08;7.12;;;;;;;-4.13;84.45;97023.67;1827497;78;21553;-64
2021/01/29 04:04:15;;;;;;;18.07;6.92;;;;;;;-4.19;84.57;97023.91;1747453;82;21157;-65
2021/01/29 04:07:13;;;;;;;14.05;6.35;;;;;;;-4.25;84.76;97014.00;1889899;76;22108;-66
2021/01/29 04:10:13;;;;;;;15.08;6.62;;;;;;;-4.33;84.92;97016.64;1791690;80;21706;-64
2021/01/29 04:13:00;;;;;;;16.65;7.10;;;;;;;-4.39;85.08;97014.76;1797686;79;21150;-66
2021/01/29 04:15:50;;;;;;;12.47;6.25;;;;;;;-4.39;85.28;97010.58;1791643;80;21303;-66
2021/01/29 04:18:32;;;;;;;12.93;6.03;;;;;;;-4.43;85.53;97001.59;1791805;80;21162;-64
2021/01/29 04:21:37;;;;;;;15.20;6.60;;;;;;;-4.43;85.53;97001.59;1791937;80;21153;-65
2021/01/29 04:24:10;;;;;;;10.28;6.00;;;;;;;-4.41;85.53;97002.50;1789971;80;21153;-67
2021/01/29 04:27:01;;;;;;;9.63;5.15;;;;;;;-4.42;85.47;96999.55;1791747;80;21579;-66
2021/01/29 04:29:34;;;;;;;12.93;7.70;;;;;;;-4.46;85.50;97001.48;1791278;80;21268;-64
2021/01/29 04:32:06;;;;;;;11.88;6.22;;;;;;;-4.49;85.54;96995.08;1791595;80;21292;-64
2021/01/29 04:34:39;;;;;;;15.90;7.20;;;;;;;-4.49;85.58;97000.11;1791473;80;21149;-65
2021/01/29 04:37:12;;;;;;;14.20;7.05;;;;;;;-4.54;85.44;96994.89;1791476;80;21145;-65
2021/01/29 04:39:47;;;;;;;18.55;7.75;;;;;;;-4.61;85.57;96987.50;1791415;80;21288;-65
2021/01/29 04:42:38;;;;;;;15.88;7.92;;;;;;;-4.61;85.67;97015.59;1791460;80;21702;-67
2021/01/29 04:45:53;;;;;;;11.83;6.78;;;;;;;-4.61;85.61;97014.33;1791691;80;21106;-66
2021/01/29 04:48:38;;;;;;;13.13;7.03;;;;;;;-4.65;85.62;97008.75;1791534;80;21157;-67
2021/01/29 04:51:56;;;;;;;14.60;7.80;;;;;;;-4.60;85.69;96999.30;1870626;76;22149;-65
2021/01/29 04:54:49;;;;;;;18.15;7.33;;;;;;;-4.65;85.62;97003.30;1760615;81;21153;-65
2021/01/29 04:57:52;;;;;;;11.95;7.37;;;;;;;-4.67;85.55;97007.82;1777082;81;21162;-63
2021/01/29 05:00:59;;;;;;;15.30;8.60;;;;;;;-4.65;85.60;97004.56;1758959;81;21689;-68
2021/01/29 05:04:04;;;;;;;16.35;9.45;;;;;;;-4.59;85.56;96987.16;1734236;81;21146;-66
2021/01/29 05:07:20;;;;;;;14.45;8.40;;;;;;;-4.53;85.35;96994.48;1760739;81;21547;-65
2021/01/29 05:10:21;;;;;;;14.63;9.98;;;;;;;-4.47;85.10;96971.67;1772755;80;21169;-67
2021/01/29 05:13:17;;;;;;;19.67;10.45;;;;;;;-4.40;85.07;96985.33;1760631;80;21568;-67
2021/01/29 05:16:27;;;;;;;20.15;10.63;;;;;;;-4.32;84.80;96981.45;1776821;80;21703;-67
2021/01/29 05:19:13;;;;;;;19.23;11.05;;;;;;;-4.22;84.60;96993.58;1759290;80;21137;-68
2021/01/29 05:22:18;;;;;;;19.45;10.60;;;;;;;-4.08;84.46;96998.25;1776875;81;21147;-68
2021/01/29 05:25:37;;;;;;;19.20;9.93;;;;;;;-3.98;84.27;96995.26;1760585;81;21185;-67
2021/01/29 05:28:25;;;;;;;21.10;12.00;;;;;;;-3.90;83.98;96986.30;1760497;81;21157;-66
2021/01/29 05:31:17;;;;;;;26.50;14.80;;;;;;;-3.74;83.65;96979.75;1870621;76;22121;-66
2021/01/29 05:34:12;;;;;;;29.23;14.63;;;;;;;-3.71;83.50;96976.06;1827850;77;21115;-65
2021/01/29 05:37:25;;;;;;;24.47;12.88;;;;;;;-3.62;83.20;96967.09;1827544;78;21276;-67
2021/01/29 05:40:36;;;;;;;25.80;13.10;;;;;;;-3.60;82.72;96971.38;1807339;78;21694;-68
2021/01/29 05:43:18;;;;;;;25.45;12.98;;;;;;;-3.62;82.67;96971.73;1827498;77;21257;-66
2021/01/29 05:46:04;;;;;;;21.23;12.45;;;;;;;-3.62;82.67;96969.62;1824965;78;21146;-65
2021/01/29 05:49:06;;;;;;;24.87;12.50;;;;;;;-3.61;82.54;96964.64;1823250;78;21169;-66
2021/01/29 05:51:40;;;;;;;;;;;;;;;-3.63;82.57;96956.57;1815701;78;21103;-65
2021/01/29 05:54:26;;;;;;;21.87;12.65;;;;;;;-3.63;82.74;96962.88;1809853;78;20132;-66
2021/01/29 05:57:20;;;;;;;22.58;12.18;;;;;;;-3.62;82.64;96955.75;1812813;78;21193;-66
2021/01/29 06:00:11;;;;;;;22.45;13.25;;;;;;;-3.62;82.63;96951.97;1788356;78;21251;-66
2021/01/29 06:03:06;;;;;;;21.15;13.83;;;;;;;-3.61;82.87;96949.89;1812910;78;21245;-66
2021/01/29 06:05:46;;;;;;;24.02;13.90;;;;;;;-3.60;83.06;96941.13;1812637;78;21296;-66
2021/01/29 06:09:03;;;;;;;27.32;15.48;;;;;;;-3.59;83.23;96936.94;1806129;77;21168;-66
2021/01/29 06:12:15;;;;;;;25.90;16.32;;;;;;;-3.58;83.54;96942.05;1795229;79;21156;-67
2021/01/29 06:15:14;;;;;;;28.38;17.40;;;;;;;-3.55;84.00;96932.06;1795435;78;21566;-65
2021/01/29 06:18:24;;;;;;;27.95;16.40;;;;;;;-3.53;84.34;96929.60;1795509;80;21202;-70
2021/01/29 06:21:02;;;;;;;30.17;15.60;;;;;;;-3.54;84.64;96933.77;1793185;79;21139;-70
2021/01/29 06:23:38;;;;;;;30.02;17.80;;;;;;;-3.51;84.81;96940.56;1795107;80;21414;-71
2021/01/29 06:26:34;;;;;;;28.75;16.93;;;;;;;-3.50;85.10;96940.62;1795142;80;21156;-71
2021/01/29 06:29:25;;;;;;;28.35;15.78;;;;;;;-3.47;85.30;96941.55;1793347;79;21558;-72
2021/01/29 06:32:43;;;;;;;27.48;16.35;;;;;;;-3.46;85.53;96941.61;1785945;79;21142;-67
2021/01/29 06:35:48;;;;;;;31.00;16.67;;;;;;;-3.45;85.87;96937.00;1781551;80;21580;-75
2021/01/29 06:38:24;;;;;;;31.27;17.55;;;;;;;-3.44;86.08;96939.97;1781790;79;21161;-70
2021/01/29 06:41:24;;;;;;;35.90;19.02;;;;;;;-3.45;86.50;96937.00;1798949;78;21127;-75
2021/01/29 06:44:30;;;;;;;32.03;18.85;;;;;;;-3.43;86.67;96944.22;1795283;78;21283;-71
2021/01/29 06:47:36;;;;;;;30.95;18.92;;;;;;;-3.39;86.72;96948.54;1797078;79;21160;-65
2021/01/29 06:50:44;;;;;;;36.55;18.62;;;;;;;-3.32;86.75;96939.52;1795044;78;21155;-72
2021/01/29 06:53:20;;;;;;;32.70;19.15;;;;;;;-3.30;86.85;96939.17;1785115;79;21172;-65
2021/01/29 06:56:18;;;;;;;33.88;19.23;;;;;;;-3.28;86.90;96942.20;1780910;79;21567;-74
2021/01/29 06:59:09;;;;;;;35.00;19.32;;;;;;;-3.27;86.92;96935.48;1781126;80;21571;-68
2021/01/29 07:02:09;;;;;;;31.65;18.55;;;;;;;-3.23;87.04;96938.94;1780944;80;21113;-69
2021/01/29 07:04:44;;;;;;;33.67;18.73;;;;;;;-3.22;86.96;96936.89;1780812;80;21156;-70
2021/01/29 07:07:39;;;;;;;38.02;19.48;;;;;;;-3.23;87.13;96921.28;1780860;80;21290;-73
2021/01/29 07:10:53;;;;;;;29.92;18.48;;;;;;;-3.19;87.31;96915.55;1780862;79;21097;-74
2021/01/29 07:13:55;;;;;;;33.48;19.40;;;;;;;-3.10;87.33;96909.53;1740087;82;21312;-71
2021/01/29 07:16:40;;;;;;;32.13;19.98;;;;;;;-3.02;87.19;96909.77;1781043;79;21278;-65
2021/01/29 07:19:51;;;;;;;38.38;19.55;;;;;;;-2.96;87.24;96919.63;1780908;80;21140;-67
2021/01/29 07:22:45;;;;;;;31.70;18.37;;;;;;;-2.90;87.26;96905.06;1780964;79;21132;-67
2021/01/29 07:25:27;;;;;;;32.83;18.27;;;;;;;-2.81;87.27;96904.50;1776864;79;21150;-70
2021/01/29 07:28:20;;;;;;;32.63;19.42;;;;;;;-2.74;87.33;96892.52;1781013;80;21157;-66
2021/01/29 07:31:14;;;;;;;34.15;17.67;;;;;;;-2.68;87.28;96905.31;1770459;80;21673;-66
2021/01/29 07:33:47;;;;;;;31.37;18.37;;;;;;;-2.60;87.26;96894.17;1765002;80;21160;-68
2021/01/29 07:36:27;;;;;;;28.55;18.23;;;;;;;-2.54;87.31;96900.27;1765019;80;21286;-65
2021/01/29 07:39:41;;;;;;;30.75;17.32;;;;;;;-2.46;87.19;96898.80;1765071;80;21117;-67
2021/01/29 07:42:49;;;;;;;33.63;18.62;;;;;;;-2.37;87.17;96898.19;1671232;84;21205;-66
2021/01/29 07:45:42;;;;;;;36.15;20.65;;;;;;;-2.25;87.06;96888.84;1760357;80;21155;-66
2021/01/29 07:48:48;;;;;;;40.70;21.82;;;;;;;-2.19;86.71;96899.11;1764992;80;21282;-66
2021/01/29 07:51:40;;;;;;;35.00;19.45;;;;;;;-2.12;86.69;96894.67;1764762;80;21249;-70
2021/01/29 07:54:29;;;;;;;35.38;19.30;;;;;;;-2.03;86.48;96898.72;1764828;80;21164;-69
2021/01/29 07:57:52;;;;;;;33.00;19.48;;;;;;;-1.98;86.55;96894.64;1764168;80;21124;-66
2021/01/29 08:00:42;;;;;;;29.40;18.23;;;;;;;-1.88;86.52;96904.97;1764781;80;21167;-65
2021/01/29 08:03:39;;;;;;;35.83;19.32;;;;;;;-1.81;86.54;96905.17;1764780;80;21136;-69
2021/01/29 08:06:29;;;;;;;35.95;19.87;;;;;;;-1.76;86.58;96896.45;1764766;80;21297;-66
2021/01/29 08:09:24;;;;;;;33.10;18.65;;;;;;;-1.71;86.93;96896.16;1764583;81;21180;-66
2021/01/29 08:11:57;;;;;;;30.10;18.23;;;;;;;-1.64;87.05;96891.70;1764771;80;21179;-68
2021/01/29 08:14:59;;;;;;;34.33;18.35;;;;;;;-1.58;87.07;96883.41;1764781;81;21218;-68
2021/01/29 08:18:17;;;;;;;31.27;19.62;;;;;;;-1.54;87.15;96897.44;1764721;80;21147;-66
2021/01/29 08:21:26;;;;;;;33.28;19.40;;;;;;;-1.43;87.29;96893.90;1763900;80;21273;-66
2021/01/29 08:24:29;;;;;;;34.55;18.98;;;;;;;-1.40;87.25;96889.33;1764777;80;21159;-66
2021/01/29 08:27:48;;;;;;;29.07;17.17;;;;;;;-1.35;87.42;96891.55;1765030;80;21278;-69
2021/01/29 08:30:48;;;;;;;30.68;18.57;;;;;;;-1.25;87.35;96877.03;1764837;79;21586;-68
2021/01/29 08:33:34;;;;;;;32.63;19.55;;;;;;;-1.17;87.21;96884.80;1716299;81;21117;-67
2021/01/29 08:36:55;;;;;;;28.25;18.20;;;;;;;-1.12;87.24;96880.70;1764976;80;21166;-69
2021/01/29 08:39:34;;;;;;;35.55;21.48;;;;;;;-1.01;87.13;96880.97;1765015;80;21174;-69
2021/01/29 08:42:49;;;;;;;32.38;19.25;;;;;;;-0.90;87.14;96876.98;1763683;81;21472;-65
2021/01/29 08:45:51;;;;;;;31.75;17.80;;;;;;;-0.80;86.87;96881.84;1764822;80;21294;-69
2021/01/29 08:48:53;;;;;;;34.45;19.40;;;;;;;-0.80;86.64;96877.63;1764834;80;21144;-69
2021/01/29 08:51:31;;;;;;;27.17;17.90;;;;;;;-0.83;86.61;96875.45;1734292;80;21159;-68
2021/01/29 08:54:26;;;;;;;34.90;19.37;;;;;;;-0.90;86.97;96872.77;1764927;80;21144;-65
2021/01/29 08:57:08;;;;;;;31.02;17.70;;;;;;;-0.89;87.18;96865.64;1764711;80;21148;-69
2021/01/29 08:59:39;;;;;;;30.85;17.95;;;;;;;-0.89;87.35;96871.97;1765038;80;21278;-65
2021/01/29 09:02:42;;;;;;;27.20;17.48;;;;;;;-0.88;87.55;96871.14;1765089;80;21567;-68
2021/01/29 09:05:25;;;;;;;28.98;18.55;;;;;;;-0.88;87.64;96862.70;1712101;84;21158;-68
2021/01/29 09:08:00;;;;;;;28.40;17.50;;;;;;;-0.87;87.85;96879.58;1712772;84;21154;-67
2021/01/29 09:11:14;;;;;;;29.55;17.87;;;;;;;-0.87;88.00;96879.58;1741541;80;21598;-65
2021/01/29 09:13:44;;;;;;;31.37;18.62;;;;;;;-0.85;88.26;96875.83;1764749;80;21164;-65
2021/01/29 09:16:23;;;;;;;28.85;17.80;;;;;;;-0.90;88.30;96859.27;1764771;80;21136;-68
2021/01/29 09:19:08;;;;;;;30.65;18.25;;;;;;;-0.97;88.11;96867.55;1764826;80;21301;-69
2021/01/29 09:22:16;;;;;;;30.27;17.37;;;;;;;-0.98;88.57;96864.58;1763146;80;21282;-65
2021/01/29 09:25:22;;;;;;;28.75;17.87;;;;;;;-0.97;88.63;96869.66;1764883;80;21128;-65
2021/01/29 09:28:18;;;;;;;32.30;17.95;;;;;;;-0.93;88.81;96865.53;1768483;80;21741;-68
2021/01/29 09:30:56;;;;;;;28.92;17.75;;;;;;;-0.87;88.76;96874.52;1769837;79;21287;-66
2021/01/29 09:33:34;;;;;;;34.83;18.75;;;;;;;-0.80;88.76;96871.72;1781142;79;21139;-68
2021/01/29 09:36:31;;;;;;;28.27;18.30;;;;;;;-0.76;88.66;96868.45;1780832;79;21149;-67
2021/01/29 09:39:26;;;;;;;28.62;17.62;;;;;;;-0.68;88.79;96871.98;1768186;80;21294;-67
2021/01/29 09:42:07;;;;;;;29.00;17.30;;;;;;;-0.63;88.74;96867.02;1780915;80;21187;-66
2021/01/29 09:44:59;;;;;;;27.73;17.35;;;;;;;-0.59;88.52;96868.36;1780917;80;21141;-68
2021/01/29 09:47:29;;;;;;;32.45;18.30;;;;;;;-0.53;88.53;96862.59;1781000;80;21266;-67
2021/01/29 09:50:06;;;;;;;31.15;17.67;;;;;;;-0.47;88.25;96861.44;1780959;79;21109;-66
2021/01/29 09:52:54;;;;;;;28.85;18.65;;;;;;;-0.44;88.28;96856.42;1780897;79;21152;-68
2021/01/29 09:55:32;;;;;;;30.00;18.20;;;;;;;-0.33;88.09;96841.03;1780823;80;21136;-65
2021/01/29 09:58:21;;;;;;;34.65;18.80;;;;;;;0.06;87.71;96843.85;1780833;79;21144;-68
2021/01/29 10:01:10;;;;;;;33.33;19.23;;;;;;;0.40;86.48;96846.95;1780968;80;21306;-65
2021/01/29 10:04:04;;;;;;;32.23;17.95;;;;;;;0.54;85.64;96848.05;1780790;80;21266;-69
2021/01/29 10:06:57;;;;;;;31.17;18.85;;;;;;;0.58;85.32;96845.98;1780803;80;21287;-68
2021/01/29 10:09:36;;;;;;;37.70;20.12;;;;;;;0.63;85.12;96849.44;1795842;80;21135;-68
2021/01/29 10:12:17;;;;;;;31.25;18.25;;;;;;;0.63;84.65;96838.44;1780920;80;21306;-68
2021/01/29 10:15:08;;;;;;;30.93;19.03;;;;;;;0.68;83.98;96835.98;1781002;79;21140;-68
2021/01/29 10:17:47;;;;;;;32.17;18.35;;;;;;;0.69;84.18;96839.83;1780719;80;21104;-67
2021/01/29 10:20:28;;;;;;;28.67;17.48;;;;;;;0.89;84.16;96836.31;1780639;80;21160;-69
2021/01/29 10:23:17;;;;;;;27.45;17.52;;;;;;;1.05;83.30;96842.03;1781058;79;21136;-68
2021/01/29 10:26:00;;;;;;;27.80;16.85;;;;;;;1.21;82.50;96825.73;1777500;80;21178;-68
2021/01/29 10:29:01;;;;;;;27.55;16.05;;;;;;;1.41;81.96;96829.38;1780934;80;21140;-65
2021/01/29 10:31:46;;;;;;;29.15;16.60;;;;;;;1.59;81.19;96836.79;1781107;79;21168;-67
2021/01/29 10:34:29;;;;;;;28.92;16.80;;;;;;;1.68;80.04;96839.03;1780928;80;21133;-67
2021/01/29 10:37:11;;;;;;;25.55;15.08;;;;;;;1.66;78.44;96844.93;1780928;80;21310;-69
2021/01/29 10:40:13;;;;;;;25.17;14.75;;;;;;;1.66;77.27;96843.66;1781213;80;21135;-67
2021/01/29 10:43:07;;;;;;;21.87;13.03;;;;;;;1.70;76.25;96841.14;1781071;79;21156;-68
2021/01/29 10:46:05;;;;;;;20.65;10.88;;;;;;;1.57;73.25;96848.20;1781003;80;21303;-68
2021/01/29 10:49:12;;;;;;;18.62;10.82;;;;;;;1.47;72.42;96843.84;1740024;82;21166;-70
2021/01/29 10:52:03;;;;;;;20.60;10.82;;;;;;;1.35;69.80;96836.06;1780842;79;21141;-67
2021/01/29 10:54:38;;;;;;;18.30;10.85;;;;;;;1.33;70.32;96839.02;1780193;80;21270;-71
2021/01/29 10:57:23;;;;;;;16.90;10.50;;;;;;;1.76;68.05;96848.02;1781090;80;21149;-68
2021/01/29 10:59:58;;;;;;;17.95;10.43;;;;;;;2.01;67.84;96839.36;1781101;79;21309;-67
2021/01/29 11:02:40;;;;;;;16.07;9.00;;;;;;;2.06;65.97;96836.05;1781077;80;21172;-68
2021/01/29 11:05:13;;;;;;;17.67;9.08;;;;;;;2.08;65.32;96848.77;1781109;80;21157;-71
2021/01/29 11:07:43;;;;;;;;;;;;;;;2.09;64.23;96853.87;1783774;79;21530;-70
2021/01/29 11:10:31;;;;;;;16.23;9.00;;;;;;;2.15;64.07;96850.53;1781217;79;20424;-72
2021/01/29 11:13:26;;;;;;;18.12;9.58;;;;;;;2.28;63.93;96852.78;1781162;80;21295;-69
2021/01/29 11:16:01;;;;;;;15.18;8.33;;;;;;;2.47;62.88;96857.60;1781207;79;21285;-73
2021/01/29 11:18:37;;;;;;;17.50;9.28;;;;;;;2.72;62.61;96847.20;1781002;80;21270;-71
2021/01/29 11:21:39;;;;;;;13.95;8.20;;;;;;;3.00;61.55;96859.71;1780886;79;21152;-68
2021/01/29 11:24:41;;;;;;;19.50;8.90;;;;;;;3.22;60.83;96851.36;1780769;80;21144;-68
2021/01/29 11:27:23;;;;;;;22.27;11.28;;;;;;;3.42;59.49;96851.91;1781105;80;21507;-71
2021/01/29 11:30:33;;;;;;;25.95;13.98;;;;;;;3.59;59.22;96851.56;1751315;80;21168;-68
2021/01/29 11:33:06;;;;;;;18.77;11.38;;;;;;;3.60;58.17;96853.25;1780936;80;21141;-68
2021/01/29 11:35:42;;;;;;;16.48;10.23;;;;;;;3.67;59.15;96851.16;1780886;80;21277;-68
2021/01/29 11:38:23;;;;;;;18.05;9.93;;;;;;;3.77;58.03;96858.86;1781124;79;21307;-66
2021/01/29 11:41:15;;;;;;;17.27;8.98;;;;;;;3.90;58.10;96849.12;1781023;79;21144;-69
2021/01/29 11:43:48;;;;;;;16.25;8.58;;;;;;;4.04;57.76;96847.44;1781256;79;21129;-70
2021/01/29 11:46:30;;;;;;;15.60;8.93;;;;;;;4.24;56.84;96852.59;1780875;79;21159;-72
2021/01/29 11:49:04;;;;;;;;;;;;;;;4.31;56.24;96850.91;1783446;79;21149;-67
2021/01/29 11:51:58;;;;;;;16.35;9.55;;;;;;;4.23;55.70;96850.05;1780855;79;20118;-68
2021/01/29 11:54:55;;;;;;;15.90;9.13;;;;;;;4.21;55.29;96855.58;1781066;80;21271;-68
2021/01/29 11:57:59;;;;;;;15.28;8.50;;;;;;;4.17;55.52;96854.70;1780760;79;21180;-72
2021/01/29 12:00:35;;;;;;;16.20;8.88;;;;;;;4.02;56.92;96861.05;1780940;80;21154;-70
2021/01/29 12:03:23;;;;;;;19.00;9.68;;;;;;;3.71;56.13;96860.94;1780815;80;21148;-68
2021/01/29 12:05:58;;;;;;;15.98;8.85;;;;;;;3.40;57.09;96852.31;1780795;80;21121;-71
2021/01/29 12:08:43;;;;;;;12.53;7.85;;;;;;;3.29;57.16;96853.96;1781102;79;21218;-68
2021/01/29 12:11:35;;;;;;;15.38;9.33;;;;;;;3.25;58.73;96856.47;1780784;79;21132;-69
2021/01/29 12:14:33;;;;;;;17.65;9.98;;;;;;;3.42;59.41;96852.75;1780864;79;21145;-68
2021/01/29 12:17:05;;;;;;;17.15;9.60;;;;;;;3.64;58.02;96866.46;1781058;79;21156;-69
2021/01/29 12:19:44;;;;;;;18.57;10.18;;;;;;;3.79;57.33;96858.42;1781008;80;21279;-70
2021/01/29 12:22:31;;;;;;;18.82;10.63;;;;;;;3.74;55.60;96872.86;1780760;80;21132;-67
2021/01/29 12:25:38;;;;;;;16.85;10.15;;;;;;;3.55;56.38;96856.20;1780834;79;21136;-67
2021/01/29 12:28:45;;;;;;;18.85;10.68;;;;;;;3.61;56.22;96866.45;1780941;80;21168;-68
2021/01/29 12:31:51;;;;;;;15.98;9.30;;;;;;;3.55;56.64;96863.02;1784002;79;21160;-71
2021/01/29 12:34:45;;;;;;;17.07;9.33;;;;;;;3.41;57.09;96859.10;1781055;80;21105;-68
2021/01/29 12:37:32;;;;;;;18.62;10.38;;;;;;;3.22;57.99;96856.45;1780831;79;21633;-67
2021/01/29 12:40:14;;;;;;;18.15;10.63;;;;;;;3.24;57.76;96867.52;1780426;79;21117;-71
2021/01/29 12:42:59;;;;;;;18.65;9.88;;;;;;;3.42;58.29;96863.38;1781239;80;21227;-69
2021/01/29 12:45:37;;;;;;;25.75;14.15;;;;;;;3.50;57.01;96862.98;1780831;80;21263;-68
2021/01/29 12:48:25;;;;;;;19.80;11.10;;;;;;;3.37;56.49;96853.58;1780820;80;21523;-70
2021/01/29 12:51:35;;;;;;;21.10;11.30;;;;;;;3.26;57.20;96856.92;1870688;76;22145;-70
2021/01/29 12:54:19;;;;;;;22.75;12.28;;;;;;;3.08;57.40;96865.73;1827648;78;21142;-70
2021/01/29 12:56:58;;;;;;;19.27;11.50;;;;;;;2.94;58.05;96862.23;1827545;78;21102;-70
2021/01/29 12:59:45;;;;;;;20.97;11.48;;;;;;;2.86;56.98;96876.61;1826966;78;21272;-69
2021/01/29 13:02:39;;;;;;;21.20;12.13;;;;;;;2.70;57.05;96866.31;1827922;78;21277;-70
2021/01/29 13:05:45;;;;;;;18.80;11.88;;;;;;;2.57;56.64;96872.12;1827584;77;21145;-70
2021/01/29 13:08:47;;;;;;;22.17;12.75;;;;;;;2.63;58.99;96873.45;1827742;77;21140;-70
2021/01/29 13:11:26;;;;;;;20.90;12.50;;;;;;;2.82;58.50;96868.95;1827710;78;21260;-68